sensor_id;sensor_type;location;lat;lon;timestamp;temperature;humidity
2955;DHT22;1487;51.470;6.938;2023-08-08T00:00:28;14.20;99.90
2955;DHT22;1487;51.470;6.938;2023-08-08T00:02:55;14.20;99.90
2955;DHT22;1487;51.470;6.938;2023-08-08T00:05:22;14.20;99.90
2955;DHT22;1487;51.470;6.938;2023-08-08T00:07:49;14.20;99.90
2955;DHT22;1487;51.470;6.938;2023-08-08T00:10:17;14.20;99.90
2955;DHT22;1487;51.470;6.938;2023-08-08T00:12:44;14.20;99.90
2955;DHT22;1487;51.470;6.938;2023-08-08T00:15:11;14.20;99.90
2955;DHT22;1487;51.470;6.938;2023-08-08T00:17:38;14.20;99.90
2955;DHT22;1487;51.470;6.938;2023-08-08T00:20:06;14.20;99.90
2955;DHT22;1487;51.470;6.938;2023-08-08T00:22:33;14.20;99.90
2955;DHT22;1487;51.470;6.938;2023-08-08T00:25:00;14.10;99.90
2955;DHT22;1487;51.470;6.938;2023-08-08T00:27:28;14.10;99.90
2955;DHT22;1487;51.470;6.938;2023-08-08T00:29:55;14.10;99.90
2955;DHT22;1487;51.470;6.938;2023-08-08T00:32:22;14.10;99.90
2955;DHT22;1487;51.470;6.938;2023-08-08T00:34:49;14.00;99.90
2955;DHT22;1487;51.470;6.938;2023-08-08T00:37:15;14.00;99.90
2955;DHT22;1487;51.470;6.938;2023-08-08T00:39:42;14.00;99.90
2955;DHT22;1487;51.470;6.938;2023-08-08T00:42:11;14.00;99.90
2955;DHT22;1487;51.470;6.938;2023-08-08T00:44:40;13.90;99.90
2955;DHT22;1487;51.470;6.938;2023-08-08T00:47:07;13.90;99.90
2955;DHT22;1487;51.470;6.938;2023-08-08T00:49:34;13.90;99.90
2955;DHT22;1487;51.470;6.938;2023-08-08T00:52:01;14.00;99.90
2955;DHT22;1487;51.470;6.938;2023-08-08T00:54:28;14.00;99.90
2955;DHT22;1487;51.470;6.938;2023-08-08T00:56:56;14.00;99.90
2955;DHT22;1487;51.470;6.938;2023-08-08T00:59:23;13.90;99.90
2955;DHT22;1487;51.470;6.938;2023-08-08T01:01:51;14.00;99.90
2955;DHT22;1487;51.470;6.938;2023-08-08T01:04:18;14.00;99.90
2955;DHT22;1487;51.470;6.938;2023-08-08T01:06:51;14.00;99.90
2955;DHT22;1487;51.470;6.938;2023-08-08T01:09:25;14.00;99.90
2955;DHT22;1487;51.470;6.938;2023-08-08T01:11:54;14.00;99.90
2955;DHT22;1487;51.470;6.938;2023-08-08T01:14:23;14.00;99.90
2955;DHT22;1487;51.470;6.938;2023-08-08T01:16:52;14.00;99.90
2955;DHT22;1487;51.470;6.938;2023-08-08T01:19:27;14.00;99.90
2955;DHT22;1487;51.470;6.938;2023-08-08T01:21:58;14.00;99.90
2955;DHT22;1487;51.470;6.938;2023-08-08T01:24:28;14.00;99.90
2955;DHT22;1487;51.470;6.938;2023-08-08T01:26:58;13.90;99.90
2955;DHT22;1487;51.470;6.938;2023-08-08T01:29:26;13.90;99.90
2955;DHT22;1487;51.470;6.938;2023-08-08T01:31:52;13.90;99.90
2955;DHT22;1487;51.470;6.938;2023-08-08T01:34:19;13.80;99.90
2955;DHT22;1487;51.470;6.938;2023-08-08T01:36:51;13.80;99.90
2955;DHT22;1487;51.470;6.938;2023-08-08T01:39:24;13.80;99.90
2955;DHT22;1487;51.470;6.938;2023-08-08T01:41:54;13.80;99.90
2955;DHT22;1487;51.470;6.938;2023-08-08T01:44:22;13.80;99.90
2955;DHT22;1487;51.470;6.938;2023-08-08T01:46:51;13.80;99.90
2955;DHT22;1487;51.470;6.938;2023-08-08T01:49:17;13.80;99.90
2955;DHT22;1487;51.470;6.938;2023-08-08T01:51:44;13.90;99.90
2955;DHT22;1487;51.470;6.938;2023-08-08T01:54:11;13.90;99.90
2955;DHT22;1487;51.470;6.938;2023-08-08T01:56:38;13.90;99.90
2955;DHT22;1487;51.470;6.938;2023-08-08T01:59:06;13.80;99.90
2955;DHT22;1487;51.470;6.938;2023-08-08T02:01:32;13.80;99.90
2955;DHT22;1487;51.470;6.938;2023-08-08T02:03:59;13.80;99.90
2955;DHT22;1487;51.470;6.938;2023-08-08T02:06:26;13.80;99.90
2955;DHT22;1487;51.470;6.938;2023-08-08T02:08:53;13.80;99.90
2955;DHT22;1487;51.470;6.938;2023-08-08T02:11:19;13.80;99.90
2955;DHT22;1487;51.470;6.938;2023-08-08T02:13:47;13.80;99.90
2955;DHT22;1487;51.470;6.938;2023-08-08T02:16:15;13.70;99.90
2955;DHT22;1487;51.470;6.938;2023-08-08T02:18:42;13.70;99.90
2955;DHT22;1487;51.470;6.938;2023-08-08T02:21:08;13.70;99.90
2955;DHT22;1487;51.470;6.938;2023-08-08T02:23:35;13.70;99.90
2955;DHT22;1487;51.470;6.938;2023-08-08T02:26:02;13.60;99.90
2955;DHT22;1487;51.470;6.938;2023-08-08T02:28:29;13.60;99.90
2955;DHT22;1487;51.470;6.938;2023-08-08T02:30:56;13.60;99.90
2955;DHT22;1487;51.470;6.938;2023-08-08T02:33:24;13.60;99.90
2955;DHT22;1487;51.470;6.938;2023-08-08T02:35:50;13.60;99.90
2955;DHT22;1487;51.470;6.938;2023-08-08T02:38:17;13.60;99.90
2955;DHT22;1487;51.470;6.938;2023-08-08T02:40:44;13.60;99.90
2955;DHT22;1487;51.470;6.938;2023-08-08T02:43:11;13.60;99.90
2955;DHT22;1487;51.470;6.938;2023-08-08T02:45:38;13.70;99.90
2955;DHT22;1487;51.470;6.938;2023-08-08T02:48:05;13.70;99.90
2955;DHT22;1487;51.470;6.938;2023-08-08T02:50:33;13.70;99.90
2955;DHT22;1487;51.470;6.938;2023-08-08T02:53:00;13.70;99.90
2955;DHT22;1487;51.470;6.938;2023-08-08T02:55:26;13.80;99.90
2955;DHT22;1487;51.470;6.938;2023-08-08T02:57:53;13.80;99.90
2955;DHT22;1487;51.470;6.938;2023-08-08T03:00:20;13.80;99.90
2955;DHT22;1487;51.470;6.938;2023-08-08T03:02:47;13.80;99.90
2955;DHT22;1487;51.470;6.938;2023-08-08T03:05:13;13.80;99.90
2955;DHT22;1487;51.470;6.938;2023-08-08T03:07:41;13.90;99.90
2955;DHT22;1487;51.470;6.938;2023-08-08T03:10:09;13.90;99.90
2955;DHT22;1487;51.470;6.938;2023-08-08T03:12:36;13.90;99.90
2955;DHT22;1487;51.470;6.938;2023-08-08T03:15:06;13.90;99.90
2955;DHT22;1487;51.470;6.938;2023-08-08T03:17:32;13.80;99.90
2955;DHT22;1487;51.470;6.938;2023-08-08T03:20:00;13.80;99.90
2955;DHT22;1487;51.470;6.938;2023-08-08T03:22:27;13.80;99.90
2955;DHT22;1487;51.470;6.938;2023-08-08T03:24:55;13.80;99.90
2955;DHT22;1487;51.470;6.938;2023-08-08T03:27:22;13.90;99.90
2955;DHT22;1487;51.470;6.938;2023-08-08T03:29:49;13.80;99.90
2955;DHT22;1487;51.470;6.938;2023-08-08T03:32:16;13.70;99.90
2955;DHT22;1487;51.470;6.938;2023-08-08T03:34:43;13.60;99.90
2955;DHT22;1487;51.470;6.938;2023-08-08T03:37:09;13.50;99.90
2955;DHT22;1487;51.470;6.938;2023-08-08T03:39:36;13.40;99.90
2955;DHT22;1487;51.470;6.938;2023-08-08T03:42:05;13.30;99.90
2955;DHT22;1487;51.470;6.938;2023-08-08T03:44:32;13.20;99.90
2955;DHT22;1487;51.470;6.938;2023-08-08T03:46:58;13.20;99.90
2955;DHT22;1487;51.470;6.938;2023-08-08T03:49:25;13.10;99.90
2955;DHT22;1487;51.470;6.938;2023-08-08T03:51:52;13.00;99.90
2955;DHT22;1487;51.470;6.938;2023-08-08T03:54:19;13.00;99.90
2955;DHT22;1487;51.470;6.938;2023-08-08T03:56:45;13.00;99.90
2955;DHT22;1487;51.470;6.938;2023-08-08T03:59:14;13.00;99.90
2955;DHT22;1487;51.470;6.938;2023-08-08T04:01:40;13.00;99.90
2955;DHT22;1487;51.470;6.938;2023-08-08T04:04:07;13.00;99.90
2955;DHT22;1487;51.470;6.938;2023-08-08T04:06:34;13.00;99.90
2955;DHT22;1487;51.470;6.938;2023-08-08T04:09:00;13.00;99.90
2955;DHT22;1487;51.470;6.938;2023-08-08T04:11:27;13.00;99.90
2955;DHT22;1487;51.470;6.938;2023-08-08T04:13:54;13.00;99.90
2955;DHT22;1487;51.470;6.938;2023-08-08T04:16:22;13.00;99.90
2955;DHT22;1487;51.470;6.938;2023-08-08T04:18:49;13.00;99.90
2955;DHT22;1487;51.470;6.938;2023-08-08T04:21:16;13.00;99.90
2955;DHT22;1487;51.470;6.938;2023-08-08T04:23:42;13.00;99.90
2955;DHT22;1487;51.470;6.938;2023-08-08T04:26:09;13.00;99.90
2955;DHT22;1487;51.470;6.938;2023-08-08T04:28:36;13.00;99.90
2955;DHT22;1487;51.470;6.938;2023-08-08T04:31:02;13.00;99.90
2955;DHT22;1487;51.470;6.938;2023-08-08T04:33:31;13.00;99.90
2955;DHT22;1487;51.470;6.938;2023-08-08T04:35:57;13.00;99.90
2955;DHT22;1487;51.470;6.938;2023-08-08T04:38:24;13.00;99.90
2955;DHT22;1487;51.470;6.938;2023-08-08T04:40:51;13.00;99.90
2955;DHT22;1487;51.470;6.938;2023-08-08T04:43:18;13.00;99.90
2955;DHT22;1487;51.470;6.938;2023-08-08T04:45:44;13.00;99.90
2955;DHT22;1487;51.470;6.938;2023-08-08T04:48:11;13.00;99.90
2955;DHT22;1487;51.470;6.938;2023-08-08T04:50:39;13.10;99.90
2955;DHT22;1487;51.470;6.938;2023-08-08T04:53:06;13.10;99.90
2955;DHT22;1487;51.470;6.938;2023-08-08T04:55:33;13.10;99.90
2955;DHT22;1487;51.470;6.938;2023-08-08T04:57:59;13.10;99.90
2955;DHT22;1487;51.470;6.938;2023-08-08T05:00:26;13.10;99.90
2955;DHT22;1487;51.470;6.938;2023-08-08T05:02:53;13.10;99.90
2955;DHT22;1487;51.470;6.938;2023-08-08T05:05:20;13.10;99.90
2955;DHT22;1487;51.470;6.938;2023-08-08T05:07:48;13.10;99.90
2955;DHT22;1487;51.470;6.938;2023-08-08T05:10:15;13.20;99.90
2955;DHT22;1487;51.470;6.938;2023-08-08T05:12:41;13.10;99.90
2955;DHT22;1487;51.470;6.938;2023-08-08T05:15:09;13.20;99.90
2955;DHT22;1487;51.470;6.938;2023-08-08T05:17:36;13.20;99.90
2955;DHT22;1487;51.470;6.938;2023-08-08T05:20:04;13.20;99.90
2955;DHT22;1487;51.470;6.938;2023-08-08T05:22:31;13.30;99.90
2955;DHT22;1487;51.470;6.938;2023-08-08T05:24:59;13.20;99.90
2955;DHT22;1487;51.470;6.938;2023-08-08T05:27:26;13.30;99.90
2955;DHT22;1487;51.470;6.938;2023-08-08T05:29:53;13.30;99.90
2955;DHT22;1487;51.470;6.938;2023-08-08T05:32:20;13.30;99.90
2955;DHT22;1487;51.470;6.938;2023-08-08T05:34:46;13.40;99.90
2955;DHT22;1487;51.470;6.938;2023-08-08T05:37:14;13.40;99.90
2955;DHT22;1487;51.470;6.938;2023-08-08T05:39:41;13.40;99.90
2955;DHT22;1487;51.470;6.938;2023-08-08T05:42:09;13.40;99.90
2955;DHT22;1487;51.470;6.938;2023-08-08T05:44:36;13.40;99.90
2955;DHT22;1487;51.470;6.938;2023-08-08T05:47:03;13.50;99.90
2955;DHT22;1487;51.470;6.938;2023-08-08T05:49:30;13.50;99.90
2955;DHT22;1487;51.470;6.938;2023-08-08T05:51:56;13.50;99.90
2955;DHT22;1487;51.470;6.938;2023-08-08T05:54:23;13.60;99.90
2955;DHT22;1487;51.470;6.938;2023-08-08T05:56:50;13.60;99.90
2955;DHT22;1487;51.470;6.938;2023-08-08T05:59:18;13.70;99.90
2955;DHT22;1487;51.470;6.938;2023-08-08T06:01:45;13.70;99.90
2955;DHT22;1487;51.470;6.938;2023-08-08T06:04:11;13.80;99.90
2955;DHT22;1487;51.470;6.938;2023-08-08T06:06:39;13.80;99.90
2955;DHT22;1487;51.470;6.938;2023-08-08T06:09:07;13.80;99.90
2955;DHT22;1487;51.470;6.938;2023-08-08T06:11:34;13.80;99.90
2955;DHT22;1487;51.470;6.938;2023-08-08T06:14:01;13.90;99.90
2955;DHT22;1487;51.470;6.938;2023-08-08T06:16:29;13.90;99.90
2955;DHT22;1487;51.470;6.938;2023-08-08T06:18:56;13.90;99.90
2955;DHT22;1487;51.470;6.938;2023-08-08T06:21:22;14.00;99.90
2955;DHT22;1487;51.470;6.938;2023-08-08T06:23:49;14.00;99.90
2955;DHT22;1487;51.470;6.938;2023-08-08T06:26:18;14.00;99.90
2955;DHT22;1487;51.470;6.938;2023-08-08T06:28:46;14.10;99.90
2955;DHT22;1487;51.470;6.938;2023-08-08T06:31:13;14.10;99.90
2955;DHT22;1487;51.470;6.938;2023-08-08T06:33:41;14.10;99.90
2955;DHT22;1487;51.470;6.938;2023-08-08T06:36:08;14.30;99.90
2955;DHT22;1487;51.470;6.938;2023-08-08T06:38:35;14.30;99.90
2955;DHT22;1487;51.470;6.938;2023-08-08T06:41:02;14.30;99.90
2955;DHT22;1487;51.470;6.938;2023-08-08T06:43:30;14.30;99.90
2955;DHT22;1487;51.470;6.938;2023-08-08T06:45:57;14.40;99.90
2955;DHT22;1487;51.470;6.938;2023-08-08T06:48:23;14.50;99.90
2955;DHT22;1487;51.470;6.938;2023-08-08T06:50:52;14.40;99.90
2955;DHT22;1487;51.470;6.938;2023-08-08T06:53:18;14.50;99.90
2955;DHT22;1487;51.470;6.938;2023-08-08T06:55:45;14.50;99.90
2955;DHT22;1487;51.470;6.938;2023-08-08T06:58:12;14.60;99.90
2955;DHT22;1487;51.470;6.938;2023-08-08T07:00:39;14.50;99.90
2955;DHT22;1487;51.470;6.938;2023-08-08T07:03:06;14.60;99.90
2955;DHT22;1487;51.470;6.938;2023-08-08T07:05:32;14.80;99.90
2955;DHT22;1487;51.470;6.938;2023-08-08T07:08:01;14.90;99.90
2955;DHT22;1487;51.470;6.938;2023-08-08T07:10:28;15.00;99.90
2955;DHT22;1487;51.470;6.938;2023-08-08T07:12:55;15.10;99.90
2955;DHT22;1487;51.470;6.938;2023-08-08T07:15:21;15.40;99.90
2955;DHT22;1487;51.470;6.938;2023-08-08T07:17:49;15.80;99.90
2955;DHT22;1487;51.470;6.938;2023-08-08T07:20:16;15.90;99.90
2955;DHT22;1487;51.470;6.938;2023-08-08T07:22:43;15.80;99.90
2955;DHT22;1487;51.470;6.938;2023-08-08T07:25:11;16.20;99.90
2955;DHT22;1487;51.470;6.938;2023-08-08T07:27:38;16.80;99.90
2955;DHT22;1487;51.470;6.938;2023-08-08T07:30:05;17.40;99.90
2955;DHT22;1487;51.470;6.938;2023-08-08T07:32:33;18.00;99.90
2955;DHT22;1487;51.470;6.938;2023-08-08T07:35:00;18.50;99.90
2955;DHT22;1487;51.470;6.938;2023-08-08T07:37:31;18.70;99.90
2955;DHT22;1487;51.470;6.938;2023-08-08T07:39:57;18.90;99.90
2955;DHT22;1487;51.470;6.938;2023-08-08T07:42:26;18.80;99.90
2955;DHT22;1487;51.470;6.938;2023-08-08T07:44:53;18.50;99.90
2955;DHT22;1487;51.470;6.938;2023-08-08T07:47:19;18.40;99.90
2955;DHT22;1487;51.470;6.938;2023-08-08T07:49:46;18.80;99.90
2955;DHT22;1487;51.470;6.938;2023-08-08T07:52:13;19.00;99.90
2955;DHT22;1487;51.470;6.938;2023-08-08T07:54:40;19.00;99.90
2955;DHT22;1487;51.470;6.938;2023-08-08T07:57:07;19.40;99.90
2955;DHT22;1487;51.470;6.938;2023-08-08T07:59:35;19.80;99.90
2955;DHT22;1487;51.470;6.938;2023-08-08T08:02:02;19.60;99.90
2955;DHT22;1487;51.470;6.938;2023-08-08T08:04:29;19.60;99.90
2955;DHT22;1487;51.470;6.938;2023-08-08T08:06:56;19.50;99.90
2955;DHT22;1487;51.470;6.938;2023-08-08T08:09:23;19.50;99.90
2955;DHT22;1487;51.470;6.938;2023-08-08T08:11:50;19.10;99.90
2955;DHT22;1487;51.470;6.938;2023-08-08T08:14:16;19.20;99.90
2955;DHT22;1487;51.470;6.938;2023-08-08T08:16:44;19.60;99.90
2955;DHT22;1487;51.470;6.938;2023-08-08T08:19:11;19.80;99.90
2955;DHT22;1487;51.470;6.938;2023-08-08T08:21:38;19.90;99.90
2955;DHT22;1487;51.470;6.938;2023-08-08T08:24:06;20.20;99.90
2955;DHT22;1487;51.470;6.938;2023-08-08T08:26:33;20.40;99.90
2955;DHT22;1487;51.470;6.938;2023-08-08T08:28:59;20.30;99.90
2955;DHT22;1487;51.470;6.938;2023-08-08T08:31:26;20.30;99.90
2955;DHT22;1487;51.470;6.938;2023-08-08T08:33:55;20.80;99.90
2955;DHT22;1487;51.470;6.938;2023-08-08T08:36:21;21.00;99.90
2955;DHT22;1487;51.470;6.938;2023-08-08T08:38:48;21.10;99.90
2955;DHT22;1487;51.470;6.938;2023-08-08T08:41:18;22.00;99.90
2955;DHT22;1487;51.470;6.938;2023-08-08T08:43:45;22.00;99.90
2955;DHT22;1487;51.470;6.938;2023-08-08T08:46:14;21.30;99.90
2955;DHT22;1487;51.470;6.938;2023-08-08T08:48:44;21.60;99.90
2955;DHT22;1487;51.470;6.938;2023-08-08T08:51:14;21.90;99.90
2955;DHT22;1487;51.470;6.938;2023-08-08T08:53:41;22.50;99.90
2955;DHT22;1487;51.470;6.938;2023-08-08T08:56:12;22.50;99.90
2955;DHT22;1487;51.470;6.938;2023-08-08T08:58:39;22.20;99.90
2955;DHT22;1487;51.470;6.938;2023-08-08T09:01:07;21.30;99.90
2955;DHT22;1487;51.470;6.938;2023-08-08T09:03:35;21.30;99.90
2955;DHT22;1487;51.470;6.938;2023-08-08T09:06:02;21.50;99.90
2955;DHT22;1487;51.470;6.938;2023-08-08T09:08:30;22.10;99.90
2955;DHT22;1487;51.470;6.938;2023-08-08T09:10:57;21.80;99.90
2955;DHT22;1487;51.470;6.938;2023-08-08T09:13:24;21.70;99.90
2955;DHT22;1487;51.470;6.938;2023-08-08T09:15:52;21.30;99.90
2955;DHT22;1487;51.470;6.938;2023-08-08T09:18:23;20.80;99.90
2955;DHT22;1487;51.470;6.938;2023-08-08T09:20:50;20.70;99.90
2955;DHT22;1487;51.470;6.938;2023-08-08T09:23:17;20.70;99.90
2955;DHT22;1487;51.470;6.938;2023-08-08T09:25:45;20.70;99.90
2955;DHT22;1487;51.470;6.938;2023-08-08T09:28:12;20.70;99.90
2955;DHT22;1487;51.470;6.938;2023-08-08T09:30:38;20.90;99.90
2955;DHT22;1487;51.470;6.938;2023-08-08T09:33:07;21.40;99.90
2955;DHT22;1487;51.470;6.938;2023-08-08T09:35:37;21.50;99.90
2955;DHT22;1487;51.470;6.938;2023-08-08T09:38:04;21.30;99.90
2955;DHT22;1487;51.470;6.938;2023-08-08T09:40:31;20.90;99.90
2955;DHT22;1487;51.470;6.938;2023-08-08T09:42:59;21.00;99.90
2955;DHT22;1487;51.470;6.938;2023-08-08T09:45:26;21.20;99.90
2955;DHT22;1487;51.470;6.938;2023-08-08T09:47:53;20.90;99.90
2955;DHT22;1487;51.470;6.938;2023-08-08T09:50:20;20.70;99.90
2955;DHT22;1487;51.470;6.938;2023-08-08T09:52:47;20.50;99.90
2955;DHT22;1487;51.470;6.938;2023-08-08T09:55:14;21.00;99.90
2955;DHT22;1487;51.470;6.938;2023-08-08T09:57:41;21.40;99.90
2955;DHT22;1487;51.470;6.938;2023-08-08T10:00:10;22.00;99.90
2955;DHT22;1487;51.470;6.938;2023-08-08T10:02:43;21.30;99.90
2955;DHT22;1487;51.470;6.938;2023-08-08T10:05:10;21.50;99.90
2955;DHT22;1487;51.470;6.938;2023-08-08T10:07:38;22.00;99.90
2955;DHT22;1487;51.470;6.938;2023-08-08T10:10:07;22.40;99.90
2955;DHT22;1487;51.470;6.938;2023-08-08T10:12:36;22.80;99.90
2955;DHT22;1487;51.470;6.938;2023-08-08T10:15:04;23.30;99.90
2955;DHT22;1487;51.470;6.938;2023-08-08T10:17:36;24.00;99.90
2955;DHT22;1487;51.470;6.938;2023-08-08T10:20:04;25.20;99.90
2955;DHT22;1487;51.470;6.938;2023-08-08T10:22:37;24.90;99.90
2955;DHT22;1487;51.470;6.938;2023-08-08T10:25:08;22.80;99.90
2955;DHT22;1487;51.470;6.938;2023-08-08T10:27:36;21.10;99.90
2955;DHT22;1487;51.470;6.938;2023-08-08T10:30:06;20.40;99.90
2955;DHT22;1487;51.470;6.938;2023-08-08T10:32:40;19.80;99.90
2955;DHT22;1487;51.470;6.938;2023-08-08T10:35:07;19.20;99.90
2955;DHT22;1487;51.470;6.938;2023-08-08T10:37:35;18.90;99.90
2955;DHT22;1487;51.470;6.938;2023-08-08T10:40:03;18.80;99.90
2955;DHT22;1487;51.470;6.938;2023-08-08T10:42:33;18.60;99.90
2955;DHT22;1487;51.470;6.938;2023-08-08T10:45:09;18.30;99.90
2955;DHT22;1487;51.470;6.938;2023-08-08T10:47:37;18.10;99.90
2955;DHT22;1487;51.470;6.938;2023-08-08T10:50:07;18.20;99.90
2955;DHT22;1487;51.470;6.938;2023-08-08T10:52:38;18.20;99.90
2955;DHT22;1487;51.470;6.938;2023-08-08T10:55:19;18.30;99.90
2955;DHT22;1487;51.470;6.938;2023-08-08T10:57:53;19.00;99.90
2955;DHT22;1487;51.470;6.938;2023-08-08T11:00:24;20.30;99.90
2955;DHT22;1487;51.470;6.938;2023-08-08T11:02:51;21.10;99.90
2955;DHT22;1487;51.470;6.938;2023-08-08T11:05:21;21.60;99.90
2955;DHT22;1487;51.470;6.938;2023-08-08T11:07:48;21.60;99.90
2955;DHT22;1487;51.470;6.938;2023-08-08T11:10:16;21.00;99.90
2955;DHT22;1487;51.470;6.938;2023-08-08T11:12:53;20.70;99.90
2955;DHT22;1487;51.470;6.938;2023-08-08T11:15:20;20.00;99.90
2955;DHT22;1487;51.470;6.938;2023-08-08T11:17:46;19.40;99.90
2955;DHT22;1487;51.470;6.938;2023-08-08T11:20:14;19.20;99.90
2955;DHT22;1487;51.470;6.938;2023-08-08T11:22:42;18.90;99.90
2955;DHT22;1487;51.470;6.938;2023-08-08T11:25:09;18.80;99.90
2955;DHT22;1487;51.470;6.938;2023-08-08T11:27:36;18.60;99.90
2955;DHT22;1487;51.470;6.938;2023-08-08T11:30:04;19.10;99.90
2955;DHT22;1487;51.470;6.938;2023-08-08T11:32:31;20.40;99.90
2955;DHT22;1487;51.470;6.938;2023-08-08T11:35:00;21.30;99.90
2955;DHT22;1487;51.470;6.938;2023-08-08T11:37:28;22.00;99.90
2955;DHT22;1487;51.470;6.938;2023-08-08T11:39:56;22.20;99.90
2955;DHT22;1487;51.470;6.938;2023-08-08T11:42:23;22.50;99.90
2955;DHT22;1487;51.470;6.938;2023-08-08T11:44:50;23.30;99.90
2955;DHT22;1487;51.470;6.938;2023-08-08T11:47:18;23.40;99.90
2955;DHT22;1487;51.470;6.938;2023-08-08T11:49:51;23.10;99.90
2955;DHT22;1487;51.470;6.938;2023-08-08T11:52:18;22.90;99.90
2955;DHT22;1487;51.470;6.938;2023-08-08T11:54:50;23.10;99.90
2955;DHT22;1487;51.470;6.938;2023-08-08T11:57:19;23.10;99.90
2955;DHT22;1487;51.470;6.938;2023-08-08T11:59:48;23.30;99.90
2955;DHT22;1487;51.470;6.938;2023-08-08T12:02:16;23.80;99.90
2955;DHT22;1487;51.470;6.938;2023-08-08T12:04:44;24.20;99.90
2955;DHT22;1487;51.470;6.938;2023-08-08T12:07:11;24.70;99.90
2955;DHT22;1487;51.470;6.938;2023-08-08T12:09:38;25.10;99.50
2955;DHT22;1487;51.470;6.938;2023-08-08T12:12:06;25.70;98.80
2955;DHT22;1487;51.470;6.938;2023-08-08T12:14:38;25.40;96.50
2955;DHT22;1487;51.470;6.938;2023-08-08T12:17:05;25.00;97.40
2955;DHT22;1487;51.470;6.938;2023-08-08T12:19:32;25.00;98.20
2955;DHT22;1487;51.470;6.938;2023-08-08T12:21:59;24.50;94.50
2955;DHT22;1487;51.470;6.938;2023-08-08T12:24:26;24.00;97.00
2955;DHT22;1487;51.470;6.938;2023-08-08T12:26:52;23.20;99.10
2955;DHT22;1487;51.470;6.938;2023-08-08T12:29:19;22.80;99.90
2955;DHT22;1487;51.470;6.938;2023-08-08T12:31:47;23.40;99.90
2955;DHT22;1487;51.470;6.938;2023-08-08T12:34:14;23.70;99.90
2955;DHT22;1487;51.470;6.938;2023-08-08T12:36:41;23.50;99.90
2955;DHT22;1487;51.470;6.938;2023-08-08T12:39:08;23.20;99.90
2955;DHT22;1487;51.470;6.938;2023-08-08T12:41:36;23.10;99.90
2955;DHT22;1487;51.470;6.938;2023-08-08T12:44:03;23.10;99.90
2955;DHT22;1487;51.470;6.938;2023-08-08T12:46:29;22.80;99.90
2955;DHT22;1487;51.470;6.938;2023-08-08T12:48:57;22.30;99.90
2955;DHT22;1487;51.470;6.938;2023-08-08T12:51:24;21.80;99.90
2955;DHT22;1487;51.470;6.938;2023-08-08T12:53:51;22.00;99.90
2955;DHT22;1487;51.470;6.938;2023-08-08T12:56:18;22.20;99.90
2955;DHT22;1487;51.470;6.938;2023-08-08T12:58:44;22.30;99.90
2955;DHT22;1487;51.470;6.938;2023-08-08T13:01:11;22.00;99.90
2955;DHT22;1487;51.470;6.938;2023-08-08T13:03:38;21.40;99.90
2955;DHT22;1487;51.470;6.938;2023-08-08T13:06:06;21.00;99.90
2955;DHT22;1487;51.470;6.938;2023-08-08T13:08:34;20.70;99.90
2955;DHT22;1487;51.470;6.938;2023-08-08T13:11:01;20.50;99.90
2955;DHT22;1487;51.470;6.938;2023-08-08T13:13:28;20.50;99.90
2955;DHT22;1487;51.470;6.938;2023-08-08T13:15:54;20.50;99.90
2955;DHT22;1487;51.470;6.938;2023-08-08T13:18:21;20.70;99.90
2955;DHT22;1487;51.470;6.938;2023-08-08T13:20:48;21.10;99.90
2955;DHT22;1487;51.470;6.938;2023-08-08T13:23:16;21.30;99.90
2955;DHT22;1487;51.470;6.938;2023-08-08T13:25:43;21.30;99.90
2955;DHT22;1487;51.470;6.938;2023-08-08T13:28:11;21.30;99.90
2955;DHT22;1487;51.470;6.938;2023-08-08T13:30:37;21.30;99.90
2955;DHT22;1487;51.470;6.938;2023-08-08T13:33:05;21.50;99.90
2955;DHT22;1487;51.470;6.938;2023-08-08T13:35:32;21.40;99.90
2955;DHT22;1487;51.470;6.938;2023-08-08T13:37:59;21.30;99.90
2955;DHT22;1487;51.470;6.938;2023-08-08T13:40:28;20.90;99.90
2955;DHT22;1487;51.470;6.938;2023-08-08T13:42:54;20.50;99.90
2955;DHT22;1487;51.470;6.938;2023-08-08T13:45:21;20.30;99.90
2955;DHT22;1487;51.470;6.938;2023-08-08T13:47:49;20.20;99.90
2955;DHT22;1487;51.470;6.938;2023-08-08T13:50:16;20.30;99.90
2955;DHT22;1487;51.470;6.938;2023-08-08T13:52:42;20.50;99.90
2955;DHT22;1487;51.470;6.938;2023-08-08T13:55:09;20.30;99.90
2955;DHT22;1487;51.470;6.938;2023-08-08T13:57:37;20.30;99.90
2955;DHT22;1487;51.470;6.938;2023-08-08T14:00:05;20.10;99.90
2955;DHT22;1487;51.470;6.938;2023-08-08T14:02:36;20.00;99.90
2955;DHT22;1487;51.470;6.938;2023-08-08T14:05:03;19.90;99.90
2955;DHT22;1487;51.470;6.938;2023-08-08T14:07:31;19.80;99.90
2955;DHT22;1487;51.470;6.938;2023-08-08T14:09:58;19.80;99.90
2955;DHT22;1487;51.470;6.938;2023-08-08T14:12:25;20.10;99.90
2955;DHT22;1487;51.470;6.938;2023-08-08T14:14:53;21.10;99.90
2955;DHT22;1487;51.470;6.938;2023-08-08T14:17:20;22.00;99.90
2955;DHT22;1487;51.470;6.938;2023-08-08T14:19:47;22.20;99.90
2955;DHT22;1487;51.470;6.938;2023-08-08T14:22:14;21.80;99.90
2955;DHT22;1487;51.470;6.938;2023-08-08T14:24:42;21.70;99.90
2955;DHT22;1487;51.470;6.938;2023-08-08T14:27:09;21.40;99.90
2955;DHT22;1487;51.470;6.938;2023-08-08T14:29:36;21.30;99.90
2955;DHT22;1487;51.470;6.938;2023-08-08T14:32:04;21.20;99.90
2955;DHT22;1487;51.470;6.938;2023-08-08T14:34:32;21.00;99.90
2955;DHT22;1487;51.470;6.938;2023-08-08T14:37:00;21.10;99.90
2955;DHT22;1487;51.470;6.938;2023-08-08T14:39:27;21.70;99.90
2955;DHT22;1487;51.470;6.938;2023-08-08T14:41:55;22.20;99.90
2955;DHT22;1487;51.470;6.938;2023-08-08T14:44:22;22.50;99.90
2955;DHT22;1487;51.470;6.938;2023-08-08T14:46:49;23.40;99.90
2955;DHT22;1487;51.470;6.938;2023-08-08T14:49:17;24.20;99.90
2955;DHT22;1487;51.470;6.938;2023-08-08T14:51:44;24.00;97.10
2955;DHT22;1487;51.470;6.938;2023-08-08T14:54:11;23.20;95.30
2955;DHT22;1487;51.470;6.938;2023-08-08T14:56:38;22.90;97.80
2955;DHT22;1487;51.470;6.938;2023-08-08T14:59:04;22.50;99.50
2955;DHT22;1487;51.470;6.938;2023-08-08T15:01:31;22.20;98.80
2955;DHT22;1487;51.470;6.938;2023-08-08T15:03:58;22.20;99.90
2955;DHT22;1487;51.470;6.938;2023-08-08T15:06:26;22.70;99.90
2955;DHT22;1487;51.470;6.938;2023-08-08T15:08:53;22.80;99.10
2955;DHT22;1487;51.470;6.938;2023-08-08T15:11:19;22.60;97.60
2955;DHT22;1487;51.470;6.938;2023-08-08T15:13:46;22.80;98.60
2955;DHT22;1487;51.470;6.938;2023-08-08T15:16:13;23.00;97.00
2955;DHT22;1487;51.470;6.938;2023-08-08T15:18:41;23.20;95.30
2955;DHT22;1487;51.470;6.938;2023-08-08T15:21:08;23.60;93.50
2955;DHT22;1487;51.470;6.938;2023-08-08T15:23:36;23.20;92.90
2955;DHT22;1487;51.470;6.938;2023-08-08T15:26:02;23.00;93.10
2955;DHT22;1487;51.470;6.938;2023-08-08T15:28:29;22.60;93.70
2955;DHT22;1487;51.470;6.938;2023-08-08T15:30:56;22.70;95.20
2955;DHT22;1487;51.470;6.938;2023-08-08T15:33:23;22.30;92.00
2955;DHT22;1487;51.470;6.938;2023-08-08T15:35:50;22.00;93.10
2955;DHT22;1487;51.470;6.938;2023-08-08T15:38:16;21.70;93.30
2955;DHT22;1487;51.470;6.938;2023-08-08T15:40:44;21.70;94.00
2955;DHT22;1487;51.470;6.938;2023-08-08T15:43:11;21.60;94.10
2955;DHT22;1487;51.470;6.938;2023-08-08T15:45:38;21.50;95.10
2955;DHT22;1487;51.470;6.938;2023-08-08T15:48:05;21.40;95.00
2955;DHT22;1487;51.470;6.938;2023-08-08T15:50:32;21.10;94.10
2955;DHT22;1487;51.470;6.938;2023-08-08T15:52:59;20.70;94.80
2955;DHT22;1487;51.470;6.938;2023-08-08T15:55:26;20.60;97.80
2955;DHT22;1487;51.470;6.938;2023-08-08T15:57:55;20.70;99.70
2955;DHT22;1487;51.470;6.938;2023-08-08T16:00:22;20.70;99.00
2955;DHT22;1487;51.470;6.938;2023-08-08T16:02:49;20.50;97.80